Time;durP1;ratioP1;P1;durP2;ratioP2;P2;SDS_P1;SDS_P2;PMS_P1;PMS_P2;Temp;Humidity;BMP_temperature;BMP_pressure;BME280_temperature;BME280_humidity;BME280_pressure;Samples;Min_cycle;Max_cycle;Signal;HPM_P1;HPM_P2
2021/06/15 00:00:53;;;;;;;18.52;3.22;;;;;;;12.07;77.91;101201.19;4955165;29;20070;-79
2021/06/15 00:03:18;;;;;;;24.08;3.58;;;;;;;12.00;77.42;101176.03;4956592;28;20632;-79
2021/06/15 00:05:45;;;;;;;26.38;4.15;;;;;;;12.21;77.58;101211.00;4922430;29;20027;-79
2021/06/15 00:08:10;;;;;;;24.08;3.53;;;;;;;12.19;77.37;101191.50;4956249;28;20126;-79
2021/06/15 00:10:36;;;;;;;20.10;3.13;;;;;;;12.24;77.73;101215.16;4942598;28;20559;-79
2021/06/15 00:13:02;;;;;;;22.92;3.95;;;;;;;12.12;77.53;101158.25;4974123;28;20105;-79
2021/06/15 00:15:28;;;;;;;20.20;3.22;;;;;;;12.32;77.84;101203.38;4974951;28;20039;-79
2021/06/15 00:17:53;;;;;;;20.48;4.18;;;;;;;12.25;77.84;101197.97;4966795;28;20027;-79
2021/06/15 00:20:20;;;;;;;22.63;3.15;;;;;;;12.25;78.11;101200.66;4954941;28;20035;-79
2021/06/15 00:22:46;;;;;;;19.80;3.70;;;;;;;12.20;78.13;101179.66;4953203;29;20031;-79
2021/06/15 00:25:15;;;;;;;14.95;2.90;;;;;;;12.27;78.08;101201.28;4937554;28;20091;-79
2021/06/15 00:27:41;;;;;;;14.98;3.15;;;;;;;12.11;77.84;101190.81;4956025;29;20500;-79
2021/06/15 00:30:09;;;;;;;21.67;3.85;;;;;;;12.30;77.31;101210.84;4938563;29;20035;-79
2021/06/15 00:32:35;;;;;;;22.38;4.05;;;;;;;12.28;77.67;101219.13;4954200;28;20046;-79
2021/06/15 00:35:00;;;;;;;20.73;2.90;;;;;;;12.27;77.85;101206.66;4970181;28;20035;-79
2021/06/15 00:37:26;;;;;;;19.02;3.63;;;;;;;12.25;77.82;101189.00;4953511;28;20453;-79
2021/06/15 00:39:51;;;;;;;25.40;3.65;;;;;;;12.21;77.80;101196.69;4938728;29;20098;-79
2021/06/15 00:42:23;;;;;;;16.98;3.05;;;;;;;12.04;77.97;101158.41;4970503;28;20071;-79
2021/06/15 00:44:49;;;;;;;20.20;3.55;;;;;;;12.21;77.74;101213.69;4954034;28;20118;-79
2021/06/15 00:47:15;;;;;;;25.33;3.80;;;;;;;12.21;77.93;101213.69;4955898;28;20059;-79
2021/06/15 00:49:40;;;;;;;18.38;3.08;;;;;;;12.10;78.43;101199.94;4954212;28;20031;-79
2021/06/15 00:52:06;;;;;;;19.25;3.13;;;;;;;11.88;78.03;101162.28;4953603;28;20453;-79
2021/06/15 00:54:32;;;;;;;17.73;3.30;;;;;;;12.23;78.48;101217.03;4937836;28;20096;-79
2021/06/15 00:56:57;;;;;;;21.58;4.03;;;;;;;12.22;78.48;101209.97;4956798;28;20039;-79
2021/06/15 00:59:23;;;;;;;20.38;3.75;;;;;;;12.24;78.60;101209.78;4974305;28;20517;-79
2021/06/15 01:01:49;;;;;;;22.70;3.95;;;;;;;12.15;78.67;101209.13;4955216;28;20023;-79
2021/06/15 01:04:16;;;;;;;14.57;3.05;;;;;;;12.24;78.75;101209.78;4941960;29;20414;-79
2021/06/15 01:07:09;;;;;;;20.60;3.28;;;;;;;12.15;78.44;101200.16;4956942;29;20070;-78
2021/06/15 01:09:56;;;;;;;20.67;3.65;;;;;;;12.11;78.71;101193.50;4957165;28;20038;-79
2021/06/15 01:12:45;;;;;;;22.52;3.83;;;;;;;12.19;78.95;101221.16;4956009;29;20046;-79
2021/06/15 01:15:19;;;;;;;16.60;2.95;;;;;;;12.12;78.22;101214.91;4957319;29;20422;-79
2021/06/15 01:18:24;;;;;;;16.67;2.93;;;;;;;12.08;79.14;101219.03;4946224;28;20039;-79
2021/06/15 01:20:52;;;;;;;25.17;3.80;;;;;;;12.13;79.10;101211.16;4902384;29;20274;-79
2021/06/15 01:23:36;;;;;;;20.02;3.60;;;;;;;12.13;78.71;101218.44;4931598;29;20066;-79
2021/06/15 01:26:32;;;;;;;16.90;2.37;;;;;;;12.13;78.38;101218.44;4938430;29;20143;-79
2021/06/15 01:29:01;;;;;;;14.63;2.00;;;;;;;12.07;78.80;101216.53;4947559;29;20027;-79
2021/06/15 01:31:26;;;;;;;20.60;2.95;;;;;;;12.15;78.36;101237.94;4973889;28;20038;-79
2021/06/15 01:34:08;;;;;;;19.42;3.60;;;;;;;12.14;78.13;101231.72;4953415;28;20028;-79
2021/06/15 01:36:40;;;;;;;20.83;3.50;;;;;;;12.00;78.69;101208.41;4976872;28;20041;-80
2021/06/15 01:39:10;;;;;;;21.48;3.22;;;;;;;11.94;79.05;101193.00;4976736;28;20457;-80
2021/06/15 01:41:43;;;;;;;20.98;3.70;;;;;;;12.11;78.72;101210.53;4960546;28;20039;-79
2021/06/15 01:44:11;;;;;;;15.02;3.00;;;;;;;11.96;78.63;101189.09;4975384;28;20027;-79
2021/06/15 01:47:08;;;;;;;20.35;3.30;;;;;;;11.80;78.37;101165.09;4963676;28;20031;-79
2021/06/15 01:49:41;;;;;;;19.13;2.40;;;;;;;11.94;78.37;101183.06;4957492;28;20111;-79
2021/06/15 01:52:09;;;;;;;15.32;2.53;;;;;;;12.20;77.96;101239.00;4956129;29;20441;-79
2021/06/15 01:54:37;;;;;;;20.85;2.75;;;;;;;12.26;78.60;101250.06;4958053;28;20031;-79
2021/06/15 01:57:04;;;;;;;20.58;3.88;;;;;;;12.25;78.30;101233.03;4956227;28;20023;-80
2021/06/15 01:59:30;;;;;;;25.20;3.30;;;;;;;12.19;77.99;101245.44;4956705;29;20372;-79
2021/06/15 02:01:57;;;;;;;26.85;4.00;;;;;;;12.22;77.89;101258.53;4955495;28;20093;-79
2021/06/15 02:04:30;;;;;;;15.75;2.50;;;;;;;12.22;78.10;101245.06;4957650;29;20394;-78
2021/06/15 02:06:59;;;;;;;16.77;2.35;;;;;;;12.13;77.38;101240.03;4955693;28;20027;-79
2021/06/15 02:09:25;;;;;;;16.83;3.25;;;;;;;12.19;76.74;101237.38;4941261;29;20031;-79
2021/06/15 02:11:52;;;;;;;18.70;3.00;;;;;;;12.14;77.10;101230.88;4955993;29;20031;-79
2021/06/15 02:14:23;;;;;;;20.27;3.58;;;;;;;12.17;77.54;101260.16;4936369;29;20173;-79
2021/06/15 02:16:53;;;;;;;15.80;3.00;;;;;;;12.10;77.80;101246.63;4974023;28;20072;-79
2021/06/15 02:19:21;;;;;;;17.52;2.80;;;;;;;12.12;78.46;101236.50;4957766;29;20031;-79
2021/06/15 02:21:55;;;;;;;19.45;3.15;;;;;;;12.13;78.32;101248.13;4958677;28;20086;-79
2021/06/15 02:24:24;;;;;;;20.77;2.67;;;;;;;12.22;78.49;101261.25;4956628;29;20097;-79
2021/06/15 02:26:51;;;;;;;13.10;2.25;;;;;;;12.17;78.61;101268.25;4956214;28;20034;-79
2021/06/15 02:29:17;;;;;;;20.17;3.00;;;;;;;12.10;78.68;101248.50;4957928;29;20027;-79
2021/06/15 02:31:54;;;;;;;24.70;3.55;;;;;;;12.17;78.77;101255.59;4957112;29;20102;-79
2021/06/15 02:34:21;;;;;;;18.90;2.75;;;;;;;12.18;78.00;101259.13;4956232;28;20093;-79
2021/06/15 02:36:50;;;;;;;18.83;2.83;;;;;;;12.16;77.45;101263.91;4971995;28;20449;-79
2021/06/15 02:39:26;;;;;;;17.92;3.28;;;;;;;12.22;77.29;101261.25;4956444;28;20031;-79
2021/06/15 02:41:53;;;;;;;19.60;3.13;;;;;;;12.24;77.80;101261.03;4956331;29;20580;-79
2021/06/15 02:44:22;;;;;;;18.33;2.40;;;;;;;12.28;77.79;101253.38;4955366;29;20041;-79
2021/06/15 02:46:50;;;;;;;21.13;2.88;;;;;;;12.39;78.44;101267.16;4956479;28;20369;-78
2021/06/15 02:49:22;;;;;;;17.90;3.17;;;;;;;12.21;78.16;101248.75;4954976;28;20082;-79
2021/06/15 02:51:58;;;;;;;20.73;2.90;;;;;;;12.53;76.53;101248.31;4971950;28;20054;-79
2021/06/15 02:54:29;;;;;;;17.48;3.42;;;;;;;13.03;75.23;101270.50;4950132;28;20039;-79
2021/06/15 02:56:56;;;;;;;13.10;2.28;;;;;;;13.26;74.49;101265.59;4975232;28;20057;-78
2021/06/15 02:59:22;;;;;;;17.55;3.42;;;;;;;13.35;74.22;101250.84;4958369;28;20605;-79
2021/06/15 03:01:49;;;;;;;23.08;3.53;;;;;;;13.12;73.69;101199.88;4956564;28;20027;-79
2021/06/15 03:04:15;;;;;;;20.92;3.03;;;;;;;13.50;73.21;101264.16;4955942;28;20047;-79
2021/06/15 03:06:41;;;;;;;17.00;2.95;;;;;;;13.52;73.17;101263.97;4955205;29;20035;-80
2021/06/15 03:09:06;;;;;;;16.75;2.28;;;;;;;13.38;73.06;101272.06;4939379;29;20069;-80
2021/06/15 03:11:37;;;;;;;13.90;3.05;;;;;;;13.39;73.09;101271.03;4972205;28;20035;-79
2021/06/15 03:14:15;;;;;;;17.73;2.95;;;;;;;13.42;73.60;101263.53;4956771;28;20058;-79
2021/06/15 03:16:40;;;;;;;11.52;2.15;;;;;;;13.52;73.25;101266.66;4957534;29;20050;-79
2021/06/15 03:19:22;;;;;;;15.93;2.92;;;;;;;13.88;71.99;101270.84;4955050;28;20022;-79
2021/06/15 03:21:59;;;;;;;17.88;2.42;;;;;;;13.93;71.46;101282.66;4955952;28;20031;-79
2021/06/15 03:24:27;;;;;;;24.65;3.22;;;;;;;13.76;72.15;101297.66;4969995;28;20128;-79
2021/06/15 03:27:06;;;;;;;24.92;3.05;;;;;;;13.77;72.81;101299.31;4976301;28;20018;-79
2021/06/15 03:29:40;;;;;;;16.10;2.47;;;;;;;14.31;71.14;101303.66;4968466;28;20094;-79
2021/06/15 03:32:09;;;;;;;17.65;2.50;;;;;;;14.47;70.26;101308.63;4940010;29;20050;-79
2021/06/15 03:34:41;;;;;;;18.85;3.10;;;;;;;14.49;69.85;101320.03;4953157;29;20591;-78
2021/06/15 03:37:10;;;;;;;21.70;3.50;;;;;;;14.69;68.15;101292.94;4955958;29;20023;-78
2021/06/15 03:39:36;;;;;;;16.17;3.03;;;;;;;15.06;67.95;101330.28;4955616;28;20027;-78
2021/06/15 03:42:04;;;;;;;14.50;2.55;;;;;;;15.18;67.78;101318.56;4938142;29;20038;-78
2021/06/15 03:44:30;;;;;;;19.20;2.75;;;;;;;14.35;67.38;101207.44;4967333;28;20032;-79
2021/06/15 03:47:00;;;;;;;21.00;3.30;;;;;;;14.96;67.52;101280.09;4936200;29;20123;-79
2021/06/15 03:49:26;;;;;;;15.35;3.00;;;;;;;14.78;67.99;101288.13;4957276;28;20373;-79
2021/06/15 03:51:59;;;;;;;15.88;2.67;;;;;;;14.94;67.95;101327.44;4956009;29;20424;-79
2021/06/15 03:54:27;;;;;;;13.00;2.90;;;;;;;14.73;68.29;101326.66;4968603;28;20034;-79
2021/06/15 03:56:55;;;;;;;14.15;3.17;;;;;;;15.11;66.95;101325.06;4977071;28;20034;-78
2021/06/15 03:59:27;;;;;;;18.25;2.63;;;;;;;14.71;65.73;101214.19;4975104;28;20031;-79
2021/06/15 04:01:59;;;;;;;12.43;2.45;;;;;;;15.37;65.08;101319.50;4975895;28;20019;-79
2021/06/15 04:04:27;;;;;;;16.52;3.05;;;;;;;15.24;65.53;101287.03;4954321;28;20031;-79
2021/06/15 04:06:55;;;;;;;14.82;2.28;;;;;;;15.46;65.18;101293.78;4956070;28;20172;-79
2021/06/15 04:09:24;;;;;;;18.90;2.67;;;;;;;15.39;65.88;101330.94;4955374;29;20056;-79
2021/06/15 04:11:53;;;;;;;12.05;2.25;;;;;;;15.02;66.78;101317.16;4954862;28;20031;-79
2021/06/15 04:14:20;;;;;;;15.77;3.45;;;;;;;15.33;66.15;101331.84;4954707;29;20158;-79
2021/06/15 04:16:47;;;;;;;17.20;2.67;;;;;;;15.39;66.61;101321.97;4958109;28;20031;-79
2021/06/15 04:19:16;;;;;;;16.73;2.90;;;;;;;15.58;65.87;101337.28;4923037;29;20027;-79
2021/06/15 04:21:47;;;;;;;21.17;3.28;;;;;;;15.69;65.41;101330.34;4955958;29;20153;-80
2021/06/15 04:24:18;;;;;;;20.33;3.38;;;;;;;15.27;66.86;101346.25;4956036;29;20027;-79
2021/06/15 04:26:45;;;;;;;13.77;2.70;;;;;;;14.71;66.71;101231.25;4954899;28;20019;-79
2021/06/15 04:29:14;;;;;;;9.60;1.35;;;;;;;15.74;65.33;101349.53;4955781;28;20549;-79
2021/06/15 04:31:40;;;;;;;17.90;3.20;;;;;;;15.01;65.26;101272.16;4960676;28;20086;-79
2021/06/15 04:34:08;;;;;;;15.45;2.58;;;;;;;15.55;65.05;101355.88;4952267;28;20043;-78
2021/06/15 04:36:35;;;;;;;17.35;3.33;;;;;;;15.88;63.84;101377.38;4969447;28;20042;-79
2021/06/15 04:39:06;;;;;;;12.02;2.80;;;;;;;15.76;63.76;101374.56;4947405;28;20043;-78
2021/06/15 04:41:38;;;;;;;15.18;2.55;;;;;;;15.89;64.24;101358.19;4973702;28;20042;-78
2021/06/15 04:44:07;;;;;;;19.30;2.65;;;;;;;16.07;63.63;101378.28;4956291;28;20121;-78
2021/06/15 04:46:40;;;;;;;17.23;2.58;;;;;;;16.03;63.62;101377.91;4953654;29;20440;-78
2021/06/15 04:49:08;;;;;;;20.38;3.38;;;;;;;16.05;63.56;101383.94;4957228;28;20038;-79
2021/06/15 04:51:34;;;;;;;15.15;2.78;;;;;;;15.85;63.97;101391.41;4957670;28;20065;-78
2021/06/15 04:54:01;;;;;;;17.17;3.10;;;;;;;15.88;64.17;101389.06;4961724;28;20130;-80
2021/06/15 04:56:29;;;;;;;16.10;2.90;;;;;;;15.56;63.89;101387.38;4958445;28;20034;-80
2021/06/15 04:58:57;;;;;;;15.30;2.63;;;;;;;15.80;63.69;101391.25;4983766;28;20022;-79
2021/06/15 05:01:23;;;;;;;19.27;3.03;;;;;;;15.89;64.91;101382.63;4972699;28;20026;-78
2021/06/15 05:03:50;;;;;;;17.17;3.40;;;;;;;15.60;65.59;101342.50;4960504;28;20039;-79
2021/06/15 05:06:16;;;;;;;17.23;3.40;;;;;;;16.02;64.95;101394.41;4958197;28;20035;-79
2021/06/15 05:08:50;;;;;;;18.58;3.58;;;;;;;15.87;66.06;101392.84;4955813;28;20050;-79
2021/06/15 05:11:18;;;;;;;17.33;2.10;;;;;;;15.77;65.01;101388.97;4971599;28;20130;-79
2021/06/15 05:13:45;;;;;;;14.65;2.40;;;;;;;15.66;65.07;101385.91;4966131;28;20039;-80
2021/06/15 05:16:12;;;;;;;14.60;2.58;;;;;;;15.56;65.51;101382.78;4964575;28;20055;-78
2021/06/15 05:18:38;;;;;;;17.17;2.97;;;;;;;15.18;67.45;101363.81;4969503;28;20086;-81
2021/06/15 05:21:10;;;;;;;14.07;2.80;;;;;;;15.27;66.65;101403.19;4963044;28;20031;-78
2021/06/15 05:24:09;;;;;;;16.45;2.80;;;;;;;15.27;66.63;101403.19;4963874;28;20028;-79
2021/06/15 05:26:34;;;;;;;13.32;2.60;;;;;;;15.33;66.95;101399.63;4965427;28;20031;-78
2021/06/15 05:29:00;;;;;;;14.43;2.85;;;;;;;15.46;66.94;101404.97;4930906;28;20032;-78
2021/06/15 05:31:25;;;;;;;18.60;3.10;;;;;;;15.51;66.45;101404.31;4964919;28;20054;-78
2021/06/15 05:33:51;;;;;;;14.52;2.80;;;;;;;15.06;65.54;101385.31;4947608;28;20414;-79
2021/06/15 05:36:16;;;;;;;17.38;2.80;;;;;;;15.34;65.37;101408.59;4963006;28;20031;-78
2021/06/15 05:38:42;;;;;;;10.80;2.70;;;;;;;15.28;64.24;101396.72;4947320;29;20031;-79
2021/06/15 05:41:08;;;;;;;10.48;1.83;;;;;;;15.37;63.23;101422.53;4962991;28;20059;-79
2021/06/15 05:43:33;;;;;;;12.85;2.47;;;;;;;15.33;62.46;101417.75;4962975;28;20445;-79
2021/06/15 05:45:59;;;;;;;6.07;1.40;;;;;;;15.26;62.61;101413.22;4961100;28;20110;-79
2021/06/15 05:48:24;;;;;;;10.13;1.80;;;;;;;15.46;62.98;101433.94;4956855;28;20050;-80
2021/06/15 05:50:50;;;;;;;19.75;2.88;;;;;;;14.81;63.40;101339.16;4926738;28;20031;-80
2021/06/15 05:53:16;;;;;;;14.55;2.50;;;;;;;15.34;63.83;101446.53;4949380;28;20043;-78
2021/06/15 05:55:41;;;;;;;13.43;2.65;;;;;;;15.18;64.36;101456.81;4948213;29;20042;-79
2021/06/15 05:58:07;;;;;;;13.82;2.67;;;;;;;15.09;64.11;101444.53;4965762;28;20031;-79
2021/06/15 06:00:32;;;;;;;16.17;2.88;;;;;;;14.85;64.76;101442.53;4964546;28;20038;-79
2021/06/15 06:02:58;;;;;;;19.60;2.83;;;;;;;15.08;64.62;101458.31;4957812;29;20023;-79
2021/06/15 06:08:08;;;;;;;19.45;2.85;;;;;;;15.00;64.42;101465.63;4956225;28;20372;-79
2021/06/15 06:10:35;;;;;;;7.18;1.63;;;;;;;14.91;64.44;101449.81;4955228;28;20031;-79
2021/06/15 06:13:02;;;;;;;13.13;2.42;;;;;;;15.09;64.81;101463.50;4964114;28;20046;-79
2021/06/15 06:15:27;;;;;;;16.65;2.40;;;;;;;14.79;65.22;101419.81;4962636;28;20043;-79
2021/06/15 06:17:54;;;;;;;19.85;3.60;;;;;;;15.10;65.32;101458.91;4942017;28;20456;-80
2021/06/15 06:20:19;;;;;;;11.35;2.65;;;;;;;15.11;65.59;101447.03;4956941;29;20090;-80
2021/06/15 06:22:45;;;;;;;19.02;2.92;;;;;;;15.29;64.60;101471.56;4946023;29;20024;-79
2021/06/15 06:25:15;;;;;;;13.98;2.42;;;;;;;15.38;64.85;101474.88;4959721;29;20031;-79
2021/06/15 06:27:41;;;;;;;17.75;2.92;;;;;;;15.30;63.97;101478.69;4964509;28;20020;-79
2021/06/15 06:30:07;;;;;;;13.48;2.60;;;;;;;15.29;64.20;101477.00;4924923;28;20047;-79
2021/06/15 06:32:34;;;;;;;10.23;2.03;;;;;;;15.12;63.75;101481.22;4958500;28;20339;-80
2021/06/15 06:35:02;;;;;;;13.80;2.60;;;;;;;15.00;63.78;101454.78;4974153;28;20449;-79
2021/06/15 06:37:28;;;;;;;15.07;2.40;;;;;;;15.05;62.91;101459.56;4960166;28;20023;-79
2021/06/15 06:39:53;;;;;;;15.18;2.88;;;;;;;14.92;64.04;101444.16;4961389;28;20038;-79
2021/06/15 06:42:19;;;;;;;9.43;1.95;;;;;;;15.10;64.44;101462.47;4964650;28;20030;-79
2021/06/15 06:44:45;;;;;;;15.82;2.97;;;;;;;15.15;64.86;101473.50;4949318;28;20046;-79
2021/06/15 06:47:10;;;;;;;13.93;2.38;;;;;;;15.06;65.31;101479.34;4970058;28;20071;-79
2021/06/15 06:49:36;;;;;;;12.75;2.20;;;;;;;15.04;65.16;101479.59;4960714;28;20035;-79
2021/06/15 06:52:02;;;;;;;10.25;1.92;;;;;;;15.13;64.72;101485.59;4961344;28;20045;-79
2021/06/15 06:54:27;;;;;;;16.90;3.08;;;;;;;15.02;65.65;101498.75;4959444;28;20338;-79
2021/06/15 06:56:54;;;;;;;14.98;2.50;;;;;;;15.02;65.14;101474.38;4938785;29;20038;-80
2021/06/15 06:59:19;;;;;;;11.13;2.00;;;;;;;15.03;65.40;101502.28;4940570;29;20417;-78
2021/06/15 07:01:45;;;;;;;14.48;2.22;;;;;;;14.94;65.65;101506.28;4940370;29;20113;-80
2021/06/15 07:04:10;;;;;;;13.63;2.45;;;;;;;14.89;65.94;101487.09;4942008;29;20031;-80
2021/06/15 07:06:35;;;;;;;15.32;2.72;;;;;;;14.62;65.62;101435.69;4935969;28;20111;-80
2021/06/15 07:09:01;;;;;;;12.65;2.90;;;;;;;14.86;65.92;101495.66;4958203;28;20098;-80
2021/06/15 07:11:28;;;;;;;10.20;2.30;;;;;;;14.97;65.29;101511.28;4959582;28;20030;-79
2021/06/15 07:13:54;;;;;;;12.88;2.63;;;;;;;14.96;65.28;101498.78;4946718;28;20058;-79
2021/06/15 07:16:19;;;;;;;16.02;3.30;;;;;;;15.20;66.06;101521.69;4965155;28;20045;-79
2021/06/15 07:18:44;;;;;;;13.65;2.80;;;;;;;15.03;65.40;101500.44;4956362;28;20026;-79
2021/06/15 07:21:10;;;;;;;15.15;2.65;;;;;;;14.98;65.80;101507.53;4964320;28;20031;-79
2021/06/15 07:23:37;;;;;;;18.00;2.75;;;;;;;15.00;66.26;101514.41;4948468;29;20062;-79
2021/06/15 07:26:03;;;;;;;21.60;3.45;;;;;;;15.05;65.97;101521.91;4937436;28;20034;-79
2021/06/15 07:28:30;;;;;;;14.98;2.83;;;;;;;14.82;65.93;101503.38;4951872;28;20051;-81
2021/06/15 07:30:55;;;;;;;16.52;2.90;;;;;;;15.10;66.81;101515.84;4934026;28;20078;-79
2021/06/15 07:33:20;;;;;;;20.73;3.38;;;;;;;14.98;66.68;101496.69;4948556;29;20039;-79
2021/06/15 07:35:46;;;;;;;12.55;2.35;;;;;;;14.76;66.95;101460.88;4949015;28;20039;-80
2021/06/15 07:38:17;;;;;;;12.48;2.25;;;;;;;15.18;65.93;101521.88;4924003;28;20041;-79
2021/06/15 07:40:43;;;;;;;19.00;3.17;;;;;;;15.09;65.95;101516.88;4955873;28;20031;-80
2021/06/15 07:43:16;;;;;;;11.43;2.50;;;;;;;15.23;66.46;101508.53;4953028;28;20456;-80
2021/06/15 07:45:42;;;;;;;15.40;2.63;;;;;;;14.95;65.60;101461.88;4957539;28;20159;-79
2021/06/15 07:48:08;;;;;;;17.17;2.88;;;;;;;15.15;65.85;101503.31;4955181;28;20058;-79
2021/06/15 07:50:33;;;;;;;16.27;3.00;;;;;;;15.19;64.62;101515.41;4949076;28;20492;-79
2021/06/15 07:52:59;;;;;;;16.75;2.85;;;;;;;14.93;64.17;101489.22;4959510;28;20051;-79
2021/06/15 07:55:24;;;;;;;11.23;2.35;;;;;;;15.19;64.19;101515.41;4939937;28;20035;-80
2021/06/15 07:57:50;;;;;;;9.75;1.98;;;;;;;15.19;62.50;101526.25;4950461;28;20027;-79
2021/06/15 08:00:17;;;;;;;11.90;2.50;;;;;;;15.16;62.70;101515.00;4953656;28;20038;-80
2021/06/15 08:02:44;;;;;;;12.52;2.30;;;;;;;15.18;63.19;101512.91;4965375;28;20465;-78
2021/06/15 08:05:10;;;;;;;14.10;2.28;;;;;;;15.39;62.91;101534.31;4963899;28;20102;-79
2021/06/15 08:07:36;;;;;;;12.50;2.83;;;;;;;15.22;62.00;101517.69;4953896;28;20615;-79
2021/06/15 08:10:04;;;;;;;11.70;1.98;;;;;;;15.20;61.60;101533.34;4952330;28;20038;-79
2021/06/15 08:12:29;;;;;;;14.07;2.80;;;;;;;15.19;62.25;101531.66;4954120;28;20738;-79
2021/06/15 08:14:55;;;;;;;13.50;2.45;;;;;;;15.13;62.83;101531.69;4954484;28;20050;-79
2021/06/15 08:17:21;;;;;;;15.35;2.80;;;;;;;15.02;62.37;101525.03;4950825;29;20034;-80
2021/06/15 08:19:48;;;;;;;15.30;3.00;;;;;;;15.06;62.79;101526.28;4958723;28;20041;-79
2021/06/15 08:22:13;;;;;;;13.35;2.60;;;;;;;14.98;61.57;101519.19;4957652;28;20045;-79
2021/06/15 08:24:39;;;;;;;12.90;2.90;;;;;;;15.04;61.67;101531.91;4963456;28;20054;-79
2021/06/15 08:27:04;;;;;;;15.63;2.78;;;;;;;14.74;62.61;101468.38;4933914;28;20521;-79
2021/06/15 08:29:31;;;;;;;15.95;3.13;;;;;;;15.31;63.40;101544.59;4950222;29;20099;-79
2021/06/15 08:31:56;;;;;;;10.05;2.45;;;;;;;15.21;62.32;101545.84;4959452;28;20031;-79
2021/06/15 08:34:22;;;;;;;15.88;2.60;;;;;;;15.06;62.62;101520.03;4952156;28;20098;-79
2021/06/15 08:36:48;;;;;;;11.65;3.13;;;;;;;15.21;62.42;101542.31;4961479;28;20027;-79
2021/06/15 08:39:13;;;;;;;16.67;3.03;;;;;;;15.14;63.22;101530.66;4945148;28;20363;-78
2021/06/15 08:41:39;;;;;;;13.82;2.67;;;;;;;15.09;63.70;101535.84;4935921;28;20031;-79
2021/06/15 08:44:07;;;;;;;14.27;3.10;;;;;;;15.11;63.48;101541.91;4953331;28;20469;-79
2021/06/15 08:46:33;;;;;;;11.00;2.78;;;;;;;15.00;62.64;101532.56;4959369;28;20019;-80
2021/06/15 08:49:00;;;;;;;16.83;3.20;;;;;;;14.95;63.08;101522.31;4948321;29;20102;-79
2021/06/15 08:51:26;;;;;;;10.90;2.55;;;;;;;15.19;63.06;101553.34;4973434;28;20039;-79
2021/06/15 08:53:53;;;;;;;18.48;3.40;;;;;;;15.11;62.80;101550.06;4961848;28;20131;-79
2021/06/15 08:56:26;;;;;;;16.67;3.55;;;;;;;14.90;62.93;101507.72;4957728;28;20054;-79
2021/06/15 08:59:22;;;;;;;18.75;3.88;;;;;;;15.09;63.92;101557.53;4955838;28;20037;-79
2021/06/15 09:01:54;;;;;;;17.90;3.95;;;;;;;15.19;63.77;101547.94;4975208;28;20039;-79
2021/06/15 09:04:20;;;;;;;17.38;3.55;;;;;;;14.92;64.02;101509.19;4955857;28;20127;-79
2021/06/15 09:06:46;;;;;;;16.50;3.15;;;;;;;15.21;64.62;101550.44;4956626;28;20062;-79
2021/06/15 09:09:12;;;;;;;14.50;2.90;;;;;;;15.21;63.39;101550.44;4950498;28;20057;-79
2021/06/15 09:11:58;;;;;;;17.05;3.03;;;;;;;15.21;63.38;101558.56;4956838;28;20591;-78
2021/06/15 09:14:48;;;;;;;17.33;3.28;;;;;;;15.01;64.41;101529.63;4956564;28;20202;-79
2021/06/15 09:17:26;;;;;;;16.55;4.03;;;;;;;15.32;63.70;101571.47;4958220;28;20023;-79
2021/06/15 09:19:53;;;;;;;18.25;3.25;;;;;;;15.24;63.38;101533.75;4952538;28;20081;-79
2021/06/15 09:22:29;;;;;;;17.65;3.55;;;;;;;15.25;62.56;101528.09;4937106;28;20039;-79
2021/06/15 09:24:55;;;;;;;14.15;2.55;;;;;;;15.46;63.17;101561.41;4961093;28;20444;-79
2021/06/15 09:27:31;;;;;;;14.30;3.22;;;;;;;15.51;63.92;101576.03;4935288;28;20094;-79
2021/06/15 09:29:58;;;;;;;11.30;2.78;;;;;;;15.38;64.23;101586.06;4962039;28;20039;-79
2021/06/15 09:32:26;;;;;;;13.30;2.60;;;;;;;14.67;64.37;101481.09;4955743;29;20028;-80
2021/06/15 09:34:58;;;;;;;22.42;4.43;;;;;;;15.17;65.35;101576.31;4953209;28;20034;-80
2021/06/15 09:37:27;;;;;;;17.92;3.30;;;;;;;15.14;63.98;101584.88;4959284;28;20457;-79
2021/06/15 09:39:52;;;;;;;22.77;4.57;;;;;;;15.23;63.97;101584.44;4974930;28;20035;-82
2021/06/15 09:42:19;;;;;;;14.32;3.08;;;;;;;15.14;63.96;101555.88;4975469;28;20034;-80
2021/06/15 09:44:45;;;;;;;17.02;3.25;;;;;;;15.20;62.86;101586.75;4954094;28;20011;-80
2021/06/15 09:47:11;;;;;;;17.70;3.38;;;;;;;15.25;63.66;101585.03;4945727;28;20035;-79
2021/06/15 09:49:39;;;;;;;17.17;3.83;;;;;;;15.33;64.11;101589.44;4965427;28;20174;-81
2021/06/15 09:52:14;;;;;;;17.30;3.17;;;;;;;15.27;63.91;101585.69;4979334;28;20019;-80
2021/06/15 09:54:40;;;;;;;;;;;;;;;15.23;63.68;101599.84;4979252;28;20068;-80
2021/06/15 09:57:07;;;;;;;19.08;3.63;;;;;;;15.17;63.30;101596.13;4955941;28;19902;-80
2021/06/15 09:59:33;;;;;;;13.07;2.95;;;;;;;15.13;62.45;101585.88;4966823;28;20107;-79
2021/06/15 10:01:58;;;;;;;13.93;2.65;;;;;;;14.89;62.53;101555.69;4958724;29;20074;-79
2021/06/15 10:04:25;;;;;;;18.63;3.65;;;;;;;15.00;62.90;101571.31;4944732;28;20062;-80
2021/06/15 10:06:50;;;;;;;25.55;4.22;;;;;;;15.25;63.76;101600.47;4961722;28;20059;-80
2021/06/15 10:09:23;;;;;;;17.02;3.35;;;;;;;15.18;63.28;101594.25;4973001;28;20039;-81
2021/06/15 10:11:51;;;;;;;14.10;3.20;;;;;;;15.08;63.82;101569.44;4974836;28;20023;-81
2021/06/15 10:14:17;;;;;;;14.90;3.53;;;;;;;15.25;63.46;101595.06;4971504;28;20078;-80
2021/06/15 10:16:42;;;;;;;19.08;3.92;;;;;;;15.00;64.12;101571.31;4978708;28;20074;-80
2021/06/15 10:19:09;;;;;;;15.55;3.97;;;;;;;14.97;64.67;101590.72;4935644;28;20061;-82
2021/06/15 10:21:34;;;;;;;18.60;3.50;;;;;;;14.90;65.06;101586.31;4963301;28;20119;-79
2021/06/15 10:24:04;;;;;;;21.65;3.80;;;;;;;14.79;65.19;101579.66;4958153;29;20035;-79
2021/06/15 10:26:31;;;;;;;17.15;3.95;;;;;;;14.82;65.45;101591.97;4954916;29;20396;-79
2021/06/15 10:28:57;;;;;;;12.82;3.10;;;;;;;14.71;64.15;101591.53;4957203;28;20027;-80
2021/06/15 10:31:31;;;;;;;21.55;3.53;;;;;;;14.71;63.92;101577.16;4957136;28;20179;-82
2021/06/15 10:33:57;;;;;;;17.83;3.50;;;;;;;14.95;64.39;101603.63;4962909;28;20058;-81
2021/06/15 10:45:26;;;;;;;19.20;3.50;;;;;;;15.34;62.28;101595.69;5538302;23;20055;-79
2021/06/15 10:48:03;;;;;;;16.85;3.45;;;;;;;15.61;63.65;101596.44;4998582;28;20029;-80
2021/06/15 11:08:35;;;;;;;22.55;3.92;;;;;;;15.74;62.59;101604.59;5231141;23;20074;-82
2021/06/15 11:11:16;;;;;;;18.45;3.53;;;;;;;14.64;61.70;101424.66;4961919;28;20020;-81
2021/06/15 11:13:46;;;;;;;16.95;3.72;;;;;;;15.93;62.03;101598.25;4974257;28;20027;-81
2021/06/15 11:16:46;;;;;;;21.88;4.03;;;;;;;15.87;63.06;101593.69;4975956;28;20032;-81
2021/06/15 11:19:12;;;;;;;24.70;4.50;;;;;;;15.83;63.31;101602.47;4965906;28;20893;-81
2021/06/15 11:21:43;;;;;;;28.42;5.15;;;;;;;15.86;64.15;101602.03;4965536;28;20021;-81
2021/06/15 11:24:31;;;;;;;18.70;4.78;;;;;;;16.08;62.71;101600.69;4970823;28;20086;-81
2021/06/15 11:27:23;;;;;;;20.13;4.07;;;;;;;16.04;61.32;101609.47;4971651;28;20027;-81
2021/06/15 11:29:55;;;;;;;17.88;3.67;;;;;;;15.83;61.12;101616.03;4984525;28;20078;-81
2021/06/15 11:32:36;;;;;;;24.58;4.60;;;;;;;15.69;61.14;101601.66;4968889;28;20027;-81
2021/06/15 11:35:04;;;;;;;14.90;3.00;;;;;;;15.63;60.87;101600.63;4972877;28;20516;-81
2021/06/15 11:37:41;;;;;;;24.90;4.25;;;;;;;15.62;61.35;101600.81;4982963;28;20035;-82
2021/06/15 11:40:18;;;;;;;20.20;3.78;;;;;;;15.52;62.26;101588.53;4984458;28;20098;-81
2021/06/15 11:42:56;;;;;;;16.33;3.17;;;;;;;15.68;61.21;101627.97;4984020;28;20336;-81
2021/06/15 11:45:34;;;;;;;18.30;4.28;;;;;;;15.54;62.23;101615.47;4969799;28;20062;-81
2021/06/15 11:48:31;;;;;;;18.27;4.50;;;;;;;15.42;62.11;101612.53;4973757;28;20063;-82
2021/06/15 11:51:11;;;;;;;17.73;3.65;;;;;;;15.46;62.38;101610.25;4975915;28;20022;-82
2021/06/15 11:53:40;;;;;;;25.50;4.90;;;;;;;15.58;62.44;101615.88;4971074;28;20047;-82
2021/06/15 11:56:11;;;;;;;22.80;3.55;;;;;;;15.58;61.81;101603.13;4982709;28;20372;-81